createdAt,value
2022-08-20T00:01:01.631Z,556.27
2022-08-20T00:03:28.877Z,545.20
2022-08-20T00:05:56.635Z,549.73
2022-08-20T00:08:23.311Z,550.53
2022-08-20T00:10:53.686Z,556.47
2022-08-20T00:13:21.938Z,548.60
2022-08-20T00:15:48.379Z,532.90
2022-08-20T00:18:14.882Z,542.67
2022-08-20T00:20:41.328Z,559.87
2022-08-20T00:23:10.493Z,584.70
2022-08-20T00:25:37.252Z,541.43
2022-08-20T00:28:03.693Z,578.90
2022-08-20T00:30:30.150Z,572.17
2022-08-20T00:32:56.596Z,566.57
2022-08-20T00:35:23.069Z,569.10
2022-08-20T00:37:49.512Z,594.80
2022-08-20T00:40:22.053Z,586.57
2022-08-20T00:42:49.035Z,554.40
2022-08-20T00:45:15.458Z,555.03
2022-08-20T00:47:41.933Z,562.63
2022-08-20T00:50:18.072Z,555.87
2022-08-20T00:52:49.841Z,571.83
2022-08-20T00:55:16.795Z,561.40
2022-08-20T00:57:58.958Z,558.97
2022-08-20T01:00:28.057Z,567.07
2022-08-20T01:02:54.511Z,566.13
2022-08-20T01:05:20.933Z,578.20
2022-08-20T01:07:55.248Z,559.47
2022-08-20T01:10:21.855Z,567.83
2022-08-20T01:12:48.312Z,578.63
2022-08-20T01:15:22.139Z,565.73
2022-08-20T01:17:57.819Z,543.90
2022-08-20T01:20:24.279Z,554.93
2022-08-20T01:22:50.716Z,570.93
2022-08-20T01:25:17.168Z,560.87
2022-08-20T01:27:43.679Z,549.93
2022-08-20T01:30:11.832Z,552.30
2022-08-20T01:32:38.281Z,569.60
2022-08-20T01:35:04.743Z,570.33
2022-08-20T01:37:31.683Z,598.00
2022-08-20T01:39:58.424Z,573.10
2022-08-20T01:42:24.964Z,569.20
2022-08-20T01:44:51.414Z,557.97
2022-08-20T01:47:17.899Z,559.67
2022-08-20T01:49:44.346Z,554.90
2022-08-20T01:52:10.796Z,573.77
2022-08-20T01:54:37.264Z,571.70
2022-08-20T01:57:03.729Z,589.57
2022-08-20T01:59:30.207Z,575.37
2022-08-20T02:01:56.681Z,577.77
2022-08-20T02:04:23.142Z,581.90
2022-08-20T02:06:56.097Z,610.60
2022-08-20T02:09:24.074Z,603.27
2022-08-20T02:11:50.506Z,596.20
2022-08-20T02:14:16.967Z,619.17
2022-08-20T02:16:43.417Z,609.83
2022-08-20T02:19:18.989Z,564.43
2022-08-20T02:21:46.417Z,577.60
2022-08-20T02:24:12.871Z,579.97
2022-08-20T02:26:39.320Z,597.50
2022-08-20T02:29:06.791Z,580.40
2022-08-20T02:31:35.054Z,572.77
2022-08-20T02:34:19.755Z,575.43
2022-08-20T02:36:48.048Z,578.53
2022-08-20T02:39:14.497Z,578.83
2022-08-20T02:41:40.949Z,580.77
2022-08-20T02:44:07.477Z,605.30
2022-08-20T02:46:33.911Z,576.40
2022-08-20T02:49:00.397Z,599.77
2022-08-20T02:51:30.384Z,566.67
2022-08-20T02:53:57.255Z,575.07
2022-08-20T02:56:23.744Z,587.67
2022-08-20T02:58:50.232Z,598.07
2022-08-20T03:01:16.752Z,572.37
2022-08-20T03:03:43.250Z,601.70
2022-08-20T03:06:09.715Z,563.30
2022-08-20T03:08:36.173Z,616.20
2022-08-20T03:11:02.638Z,615.13
2022-08-20T03:13:29.105Z,585.47
2022-08-20T03:15:58.854Z,609.47
2022-08-20T03:18:25.682Z,585.93
2022-08-20T03:20:52.361Z,610.87
2022-08-20T03:23:18.837Z,582.70
2022-08-20T03:25:45.306Z,601.47
2022-08-20T03:28:11.759Z,589.83
2022-08-20T03:30:38.231Z,583.83
2022-08-20T03:33:04.673Z,576.30
2022-08-20T03:35:31.137Z,575.10
2022-08-20T03:37:57.767Z,596.10
2022-08-20T03:40:24.301Z,585.77
2022-08-20T03:42:50.758Z,584.53
2022-08-20T03:45:20.401Z,561.50
2022-08-20T03:47:47.085Z,596.23
2022-08-20T03:50:14.763Z,615.30
2022-08-20T03:52:49.260Z,595.67
2022-08-20T03:55:15.730Z,619.03
2022-08-20T03:57:42.195Z,609.47
2022-08-20T04:00:08.652Z,605.83
2022-08-20T04:02:36.144Z,623.17
2022-08-20T04:05:02.920Z,589.27
2022-08-20T04:07:29.346Z,638.43
2022-08-20T04:09:55.846Z,642.57
2022-08-20T04:12:22.293Z,635.83
2022-08-20T04:14:48.769Z,641.20
2022-08-20T04:17:16.081Z,617.50
2022-08-20T04:19:42.561Z,642.27
2022-08-20T04:22:09.012Z,638.57
2022-08-20T04:24:35.472Z,655.90
2022-08-20T04:27:01.915Z,659.10
2022-08-20T04:29:32.234Z,647.27
2022-08-20T04:31:59.226Z,647.17
2022-08-20T04:34:25.692Z,649.40
2022-08-20T04:36:52.149Z,656.33
2022-08-20T04:39:18.612Z,656.63
2022-08-20T04:41:45.053Z,656.10
2022-08-20T04:44:11.507Z,655.93
2022-08-20T04:46:37.957Z,650.00
2022-08-20T04:49:04.399Z,645.27
2022-08-20T04:51:30.829Z,652.70
2022-08-20T04:53:58.191Z,651.17
2022-08-20T04:56:24.686Z,640.40
2022-08-20T04:58:51.403Z,644.37
2022-08-20T05:01:18.011Z,653.13
2022-08-20T05:03:44.547Z,634.87
2022-08-20T05:06:11.014Z,650.87
2022-08-20T05:08:37.486Z,655.70
2022-08-20T05:11:27.564Z,654.87
2022-08-20T05:13:50.373Z,619.80
2022-08-20T05:16:16.815Z,638.00
2022-08-20T05:18:43.300Z,655.60
2022-08-20T05:21:09.765Z,643.67
2022-08-20T05:23:36.216Z,659.70
2022-08-20T05:26:02.680Z,658.97
2022-08-20T05:28:29.878Z,650.77
2022-08-20T05:30:56.326Z,647.30
2022-08-20T05:33:22.763Z,657.80
2022-08-20T05:35:49.241Z,650.80
2022-08-20T05:38:15.683Z,659.83
2022-08-20T05:40:42.172Z,658.03
2022-08-20T05:43:08.629Z,668.10
2022-08-20T05:45:35.092Z,662.17
2022-08-20T05:48:03.402Z,659.40
2022-08-20T05:50:30.041Z,648.53
2022-08-20T05:52:56.470Z,645.10
2022-08-20T05:55:22.951Z,661.07
2022-08-20T05:57:49.426Z,658.20
2022-08-20T06:00:15.966Z,659.60
2022-08-20T06:02:42.404Z,655.37
2022-08-20T06:05:08.845Z,654.87
2022-08-20T06:07:35.266Z,663.20
2022-08-20T06:10:01.697Z,662.37
2022-08-20T06:12:28.115Z,659.30
2022-08-20T06:14:54.579Z,649.67
2022-08-20T06:17:22.139Z,658.57
2022-08-20T06:19:48.860Z,652.57
2022-08-20T06:22:20.534Z,657.70
2022-08-20T06:24:51.431Z,645.77
2022-08-20T06:27:17.893Z,657.63
2022-08-20T06:29:44.347Z,664.20
2022-08-20T06:32:10.780Z,653.67
2022-08-20T06:34:37.227Z,651.70
2022-08-20T06:37:03.653Z,659.60
2022-08-20T06:39:30.094Z,654.57
2022-08-20T06:41:56.527Z,662.60
2022-08-20T06:44:23.110Z,662.90
2022-08-20T06:46:49.571Z,666.53
2022-08-20T06:49:16.040Z,662.63
2022-08-20T06:51:42.486Z,650.10
2022-08-20T06:54:08.940Z,662.40
2022-08-20T06:56:35.405Z,668.90
2022-08-20T06:59:01.846Z,664.10
2022-08-20T07:01:28.349Z,649.73
2022-08-20T07:03:56.258Z,649.70
2022-08-20T07:06:22.763Z,678.50
2022-08-20T07:08:49.344Z,646.60
2022-08-20T07:11:15.836Z,653.27
2022-08-20T07:13:42.336Z,651.57
2022-08-20T07:16:09.946Z,649.03
2022-08-20T07:18:38.234Z,661.77
2022-08-20T07:21:04.703Z,651.77
2022-08-20T07:23:31.150Z,650.10
2022-08-20T07:25:57.600Z,641.33
2022-08-20T07:28:24.072Z,688.97
2022-08-20T07:30:57.029Z,657.30
2022-08-20T07:33:24.378Z,649.87
2022-08-20T07:35:51.114Z,653.93
2022-08-20T07:38:17.551Z,650.33
2022-08-20T07:40:44.001Z,659.27
2022-08-20T07:43:10.439Z,662.50
2022-08-20T07:45:38.017Z,658.97
2022-08-20T07:48:04.443Z,659.70
2022-08-20T07:50:30.901Z,664.07
2022-08-20T07:52:57.501Z,653.13
2022-08-20T07:55:24.042Z,660.00
2022-08-20T07:57:50.500Z,662.00
2022-08-20T08:00:16.953Z,654.37
2022-08-20T08:02:43.382Z,665.50
2022-08-20T08:05:09.848Z,664.20
2022-08-20T08:07:36.276Z,640.17
2022-08-20T08:10:04.258Z,666.30
2022-08-20T08:12:33.719Z,662.13
2022-08-20T08:15:00.203Z,663.90
2022-08-20T08:17:26.651Z,656.60
2022-08-20T08:19:53.117Z,659.30
2022-08-20T08:22:19.567Z,646.00
2022-08-20T08:24:56.917Z,656.30
2022-08-20T08:27:23.935Z,642.17
2022-08-20T08:29:50.379Z,653.20
2022-08-20T08:32:17.059Z,653.07
2022-08-20T08:34:43.512Z,659.30
2022-08-20T08:37:09.965Z,662.80
2022-08-20T08:39:36.539Z,662.00
2022-08-20T08:42:03.567Z,656.83
2022-08-20T08:44:30.016Z,662.47
2022-08-20T08:46:56.455Z,655.77
2022-08-20T08:49:22.920Z,662.63
2022-08-20T08:51:49.360Z,650.73
2022-08-20T08:54:15.817Z,663.13
2022-08-20T08:56:42.253Z,650.97
2022-08-20T08:59:16.026Z,655.27
2022-08-20T09:01:55.163Z,658.07
2022-08-20T09:04:22.913Z,664.10
2022-08-20T09:06:52.152Z,653.00
2022-08-20T09:09:18.881Z,658.90
2022-08-20T09:11:45.323Z,660.13
2022-08-20T09:14:11.771Z,659.87
2022-08-20T09:16:52.293Z,650.87
2022-08-20T09:19:19.643Z,657.63
2022-08-20T09:21:46.085Z,658.90
2022-08-20T09:24:12.538Z,651.30
2022-08-20T09:26:39.343Z,660.70
2022-08-20T09:29:05.845Z,647.93
2022-08-20T09:31:32.730Z,634.67
2022-08-20T09:33:59.558Z,648.60
2022-08-20T09:36:31.615Z,657.30
2022-08-20T09:38:59.152Z,658.40
2022-08-20T09:41:25.586Z,661.10
2022-08-20T09:43:52.021Z,659.80
2022-08-20T09:46:18.473Z,657.07
2022-08-20T09:48:44.952Z,642.20
2022-08-20T09:51:11.396Z,655.87
2022-08-20T09:53:37.848Z,655.10
2022-08-20T09:56:04.367Z,639.77
2022-08-20T09:58:30.809Z,643.30
2022-08-20T10:00:57.258Z,647.77
2022-08-20T10:03:23.693Z,655.63
2022-08-20T10:05:50.156Z,648.13
2022-08-20T10:08:16.614Z,657.10
2022-08-20T10:10:43.063Z,650.47
2022-08-20T10:13:09.495Z,656.33
2022-08-20T10:15:39.835Z,644.50
2022-08-20T10:18:08.402Z,645.47
2022-08-20T10:20:34.908Z,655.40
2022-08-20T10:23:01.416Z,656.27
2022-08-20T10:25:27.992Z,647.77
2022-08-20T10:27:54.440Z,645.80
2022-08-20T10:30:20.923Z,654.80
2022-08-20T10:32:47.375Z,643.90
2022-08-20T10:35:13.858Z,646.73
2022-08-20T10:37:40.348Z,643.37
2022-08-20T10:40:06.897Z,651.97
2022-08-20T10:42:33.395Z,645.47
2022-08-20T10:44:59.877Z,648.10
2022-08-20T10:47:26.325Z,641.67
2022-08-20T10:49:52.782Z,647.97
2022-08-20T10:52:19.285Z,647.70
2022-08-20T10:54:45.792Z,643.00
2022-08-20T10:57:12.366Z,644.03
2022-08-20T10:59:38.858Z,642.33
2022-08-20T11:02:05.496Z,658.90
2022-08-20T11:04:35.109Z,641.70
2022-08-20T11:07:01.579Z,643.57
2022-08-20T11:09:28.035Z,643.70
2022-08-20T11:11:54.523Z,638.77
2022-08-20T11:14:20.993Z,655.47
2022-08-20T11:16:47.491Z,644.70
2022-08-20T11:19:13.965Z,658.20
2022-08-20T11:21:40.441Z,655.83
2022-08-20T11:24:06.933Z,639.03
2022-08-20T11:26:33.415Z,650.40
2022-08-20T11:28:59.859Z,659.93
2022-08-20T11:31:26.324Z,645.07
2022-08-20T11:33:52.745Z,648.30
2022-08-20T11:36:19.223Z,645.87
2022-08-20T11:38:45.667Z,651.83
2022-08-20T11:41:12.105Z,647.80
2022-08-20T11:43:38.549Z,658.37
2022-08-20T11:46:05.011Z,647.27
2022-08-20T11:48:31.442Z,648.03
2022-08-20T11:50:57.904Z,653.77
2022-08-20T11:53:24.407Z,657.80
2022-08-20T11:55:51.843Z,656.73
2022-08-20T11:58:19.236Z,656.57
2022-08-20T12:00:45.699Z,658.20
2022-08-20T12:03:12.332Z,652.33
2022-08-20T12:05:38.859Z,655.30
2022-08-20T12:08:05.301Z,652.13
2022-08-20T12:10:31.767Z,642.10
2022-08-20T12:12:58.500Z,639.60
2022-08-20T12:15:25.218Z,652.80
2022-08-20T12:17:51.657Z,657.40
2022-08-20T12:20:18.097Z,653.93
2022-08-20T12:22:44.557Z,645.40
2022-08-20T12:25:11.217Z,653.63
2022-08-20T12:27:37.772Z,645.27
2022-08-20T12:30:04.253Z,654.53
2022-08-20T12:32:30.822Z,637.77
2022-08-20T12:34:57.290Z,651.30
2022-08-20T12:37:23.728Z,643.20
2022-08-20T12:39:50.271Z,641.50
2022-08-20T12:42:16.800Z,649.57
2022-08-20T12:44:43.231Z,629.33
2022-08-20T12:47:09.700Z,648.83
2022-08-20T12:49:36.164Z,646.07
2022-08-20T12:52:02.623Z,650.10
2022-08-20T12:54:29.050Z,644.77
2022-08-20T12:56:55.499Z,650.37
2022-08-20T12:59:25.418Z,632.27
2022-08-20T13:01:52.574Z,647.57
2022-08-20T13:04:19.056Z,649.17
2022-08-20T13:06:45.496Z,641.10
2022-08-20T13:09:12.909Z,647.30
2022-08-20T13:11:39.360Z,643.87
2022-08-20T13:14:05.801Z,651.10
2022-08-20T13:16:32.252Z,645.10
2022-08-20T13:18:58.680Z,644.83
2022-08-20T13:21:25.113Z,644.70
2022-08-20T13:23:51.543Z,643.63
2022-08-20T13:26:18.004Z,639.67
2022-08-20T13:28:44.441Z,647.07
2022-08-20T13:31:10.925Z,652.00
2022-08-20T13:33:37.375Z,643.07
2022-08-20T13:36:03.810Z,653.00
2022-08-20T13:38:30.256Z,644.60
2022-08-20T13:40:56.704Z,642.17
2022-08-20T13:43:23.126Z,642.17
2022-08-20T13:45:49.629Z,640.67
2022-08-20T13:48:16.043Z,652.70
2022-08-20T13:50:42.475Z,643.17
2022-08-20T13:53:08.922Z,641.00
2022-08-20T13:55:35.382Z,647.90
2022-08-20T13:58:05.057Z,649.77
2022-08-20T14:00:32.370Z,639.10
2022-08-20T14:02:59.093Z,651.33
2022-08-20T14:05:25.718Z,641.13
2022-08-20T14:07:52.157Z,649.43
2022-08-20T14:10:18.616Z,640.90
2022-08-20T14:12:45.895Z,654.20
2022-08-20T14:15:12.352Z,648.50
2022-08-20T14:17:38.803Z,647.60
2022-08-20T14:20:06.407Z,640.37
2022-08-20T14:22:33.114Z,649.40
2022-08-20T14:24:59.574Z,646.50
2022-08-20T14:27:31.011Z,646.90
2022-08-20T14:29:57.746Z,645.93
2022-08-20T14:32:24.214Z,640.60
2022-08-20T14:34:50.671Z,650.23
2022-08-20T14:37:17.110Z,638.03
2022-08-20T14:39:43.593Z,639.43
2022-08-20T14:42:10.088Z,646.60
2022-08-20T14:44:36.590Z,631.87
2022-08-20T14:47:03.050Z,646.40
2022-08-20T14:49:29.519Z,640.20
2022-08-20T14:51:58.987Z,644.57
2022-08-20T14:54:25.434Z,640.37
2022-08-20T14:56:51.897Z,641.17
2022-08-20T14:59:18.324Z,649.50
2022-08-20T15:01:44.782Z,647.70
2022-08-20T15:04:11.214Z,612.03
2022-08-20T15:06:37.752Z,637.70
2022-08-20T15:09:05.320Z,629.67
2022-08-20T15:11:34.577Z,649.50
2022-08-20T15:14:01.200Z,654.10
2022-08-20T15:16:28.382Z,645.70
2022-08-20T15:18:58.151Z,645.10
2022-08-20T15:21:26.530Z,648.20
2022-08-20T15:23:55.371Z,643.60
2022-08-20T15:26:21.824Z,641.13
2022-08-20T15:28:48.267Z,640.70
2022-08-20T15:31:14.723Z,636.50
2022-08-20T15:33:41.174Z,647.13
2022-08-20T15:36:07.612Z,644.70
2022-08-20T15:38:34.075Z,635.07
2022-08-20T15:41:00.578Z,647.80
2022-08-20T15:43:27.009Z,637.87
2022-08-20T15:45:53.458Z,636.00
2022-08-20T15:48:19.980Z,646.50
2022-08-20T15:50:46.448Z,642.23
2022-08-20T15:53:12.882Z,610.47
2022-08-20T15:55:39.334Z,640.07
2022-08-20T15:58:05.792Z,640.90
2022-08-20T16:00:32.225Z,645.70
2022-08-20T16:02:58.846Z,631.43
2022-08-20T16:05:25.416Z,632.40
2022-08-20T16:07:51.853Z,640.37
2022-08-20T16:10:18.444Z,646.57
2022-08-20T16:12:44.903Z,648.97
2022-08-20T16:15:11.364Z,637.70
2022-08-20T16:17:37.838Z,640.30
2022-08-20T16:20:04.326Z,643.37
2022-08-20T16:22:30.787Z,640.17
2022-08-20T16:24:57.229Z,650.50
2022-08-20T16:27:23.705Z,645.70
2022-08-20T16:29:50.136Z,639.33
2022-08-20T16:32:16.711Z,647.30
2022-08-20T16:34:43.167Z,644.70
2022-08-20T16:37:09.627Z,650.00
2022-08-20T16:39:36.118Z,650.97
2022-08-20T16:42:05.667Z,641.90
2022-08-20T16:44:32.488Z,636.17
2022-08-20T16:46:58.964Z,640.40
2022-08-20T16:49:25.525Z,638.30
2022-08-20T16:51:52.312Z,645.97
2022-08-20T16:54:18.817Z,644.40
2022-08-20T16:56:54.786Z,646.23
2022-08-20T16:59:27.230Z,636.87
2022-08-20T17:01:53.921Z,649.03
2022-08-20T17:04:28.463Z,645.37
2022-08-20T17:06:54.983Z,631.97
2022-08-20T17:09:21.712Z,636.37
2022-08-20T17:11:48.174Z,636.70
2022-08-20T17:14:14.613Z,640.53
2022-08-20T17:16:41.098Z,648.30
2022-08-20T17:19:07.561Z,640.00
2022-08-20T17:21:34.050Z,643.70
2022-08-20T17:24:00.565Z,649.30
2022-08-20T17:26:27.213Z,647.10
2022-08-20T17:28:53.672Z,635.40
2022-08-20T17:31:20.147Z,635.27
2022-08-20T17:33:46.836Z,636.20
2022-08-20T17:36:13.402Z,636.73
2022-08-20T17:38:39.839Z,636.40
2022-08-20T17:41:06.298Z,645.80
2022-08-20T17:43:32.754Z,645.80
2022-08-20T17:45:59.219Z,644.40
2022-08-20T17:48:27.051Z,638.90
2022-08-20T17:50:53.548Z,636.90
2022-08-20T17:53:23.403Z,631.27
2022-08-20T17:55:50.254Z,646.50
2022-08-20T17:58:16.743Z,634.00
2022-08-20T18:00:43.390Z,645.03
2022-08-20T18:03:09.854Z,636.50
2022-08-20T18:05:36.354Z,643.00
2022-08-20T18:08:02.927Z,645.40
2022-08-20T18:10:29.710Z,625.97
2022-08-20T18:12:56.395Z,642.30
2022-08-20T18:15:24.683Z,636.70
2022-08-20T18:17:51.438Z,641.53
2022-08-20T18:20:18.111Z,646.87
2022-08-20T18:22:44.627Z,648.00
2022-08-20T18:25:11.230Z,633.13
2022-08-20T18:27:37.780Z,648.87
2022-08-20T18:30:04.305Z,653.67
2022-08-20T18:32:30.888Z,646.93
2022-08-20T18:35:02.105Z,649.73
2022-08-20T18:37:30.279Z,635.77
2022-08-20T18:39:56.886Z,649.13
2022-08-20T18:42:23.419Z,648.10
2022-08-20T18:44:49.879Z,632.03
2022-08-20T18:47:17.704Z,646.40
2022-08-20T18:49:44.180Z,651.10
2022-08-20T18:52:10.734Z,633.27
2022-08-20T18:54:37.415Z,649.13
2022-08-20T18:57:07.787Z,646.93
2022-08-20T18:59:34.328Z,648.50
2022-08-20T19:02:00.898Z,647.67
2022-08-20T19:09:54.514Z,630.40
2022-08-20T19:12:22.722Z,642.63
2022-08-20T19:14:49.308Z,647.97
2022-08-20T19:17:16.045Z,632.97
2022-08-20T19:19:42.552Z,635.73
2022-08-20T19:22:09.138Z,638.77
2022-08-20T19:24:43.205Z,638.50
2022-08-20T19:27:11.030Z,644.87
2022-08-20T19:29:37.808Z,636.07
2022-08-20T19:34:54.769Z,646.50
2022-08-20T19:37:35.331Z,649.73
2022-08-20T19:40:06.655Z,638.70
2022-08-20T19:42:33.158Z,645.77
2022-08-20T19:44:59.610Z,640.53
2022-08-20T19:47:26.105Z,641.93
2022-08-20T19:49:52.599Z,647.77
2022-08-20T19:52:19.069Z,652.93
2022-08-20T19:54:45.562Z,653.40
2022-08-20T19:57:12.033Z,641.80
2022-08-20T19:59:38.580Z,649.50
2022-08-20T20:02:20.410Z,632.20
2022-08-20T20:04:55.571Z,644.80
2022-08-20T20:07:24.385Z,647.47
2022-08-20T20:09:50.841Z,639.20
2022-08-20T20:12:22.445Z,639.00
2022-08-20T20:14:49.587Z,637.20
2022-08-20T20:17:21.006Z,637.00
2022-08-20T20:19:49.326Z,632.67
2022-08-20T20:22:20.223Z,634.70
2022-08-20T20:24:46.940Z,633.40
2022-08-20T20:27:14.803Z,634.60
2022-08-20T20:29:46.518Z,630.20
2022-08-20T20:32:12.976Z,646.63
2022-08-20T20:34:55.388Z,638.37
2022-08-20T20:37:41.574Z,643.90
2022-08-20T20:40:12.990Z,639.10
2022-08-20T20:42:46.016Z,643.07
2022-08-20T20:45:12.459Z,638.93
2022-08-20T20:47:38.924Z,634.80
2022-08-20T20:50:05.360Z,642.07
2022-08-20T20:52:31.835Z,642.77
2022-08-20T20:54:58.276Z,633.80
2022-08-20T20:57:31.800Z,646.60
2022-08-20T21:00:05.261Z,633.80
2022-08-20T21:02:33.227Z,633.00
2022-08-20T21:04:59.669Z,626.07
2022-08-20T21:07:26.122Z,643.57
2022-08-20T21:09:52.545Z,640.20
2022-08-20T21:12:18.972Z,634.20
2022-08-20T21:14:45.402Z,626.67
2022-08-20T21:17:11.848Z,645.63
2022-08-20T21:19:43.832Z,632.97
2022-08-20T21:22:11.707Z,643.73
2022-08-20T21:24:38.188Z,633.33
2022-08-20T21:27:04.623Z,644.73
2022-08-20T21:29:32.658Z,632.87
2022-08-20T21:31:59.492Z,638.87
2022-08-20T21:34:25.972Z,629.90
2022-08-20T21:36:52.407Z,632.87
2022-08-20T21:39:20.849Z,632.63
2022-08-20T21:41:47.301Z,641.43
2022-08-20T21:44:13.796Z,649.50
2022-08-20T21:46:41.865Z,636.43
2022-08-20T21:49:08.344Z,640.13
2022-08-20T21:51:35.948Z,633.03
2022-08-20T21:54:02.422Z,610.57
2022-08-20T21:56:28.849Z,637.20
2022-08-20T21:58:58.725Z,635.20
2022-08-20T22:01:25.257Z,634.17
2022-08-20T22:03:52.054Z,637.37
2022-08-20T22:06:18.547Z,632.50
2022-08-20T22:08:45.011Z,631.27
2022-08-20T22:11:14.483Z,643.17
2022-08-20T22:13:40.921Z,632.17
2022-08-20T22:16:07.353Z,624.33
2022-08-20T22:18:33.840Z,640.43
2022-08-20T22:21:03.217Z,601.23
2022-08-20T22:23:29.649Z,628.57
2022-08-20T22:25:56.086Z,639.57
2022-08-20T22:28:22.536Z,631.70
2022-08-20T22:30:48.979Z,642.93
2022-08-20T22:33:15.441Z,640.47
2022-08-20T22:35:41.869Z,641.17
2022-08-20T22:38:08.512Z,634.17
2022-08-20T22:40:34.956Z,639.00
2022-08-20T22:43:01.417Z,639.83
2022-08-20T22:45:27.887Z,627.10
2022-08-20T22:47:54.361Z,632.30
2022-08-20T22:50:20.796Z,629.17
2022-08-20T22:52:47.232Z,628.73
2022-08-20T22:55:13.665Z,627.73
2022-08-20T22:57:40.092Z,628.37
2022-08-20T23:00:06.559Z,631.70
2022-08-20T23:02:32.993Z,627.23
2022-08-20T23:04:59.462Z,635.83
2022-08-20T23:07:25.891Z,628.60
2022-08-20T23:09:52.349Z,638.30
2022-08-20T23:12:18.782Z,620.93
2022-08-20T23:14:45.281Z,631.27
2022-08-20T23:17:13.669Z,635.63
2022-08-20T23:19:40.368Z,624.60
2022-08-20T23:22:06.826Z,625.37
2022-08-20T23:24:33.277Z,623.53
2022-08-20T23:26:59.725Z,627.07
2022-08-20T23:29:32.826Z,640.00
2022-08-20T23:32:06.777Z,637.40
2022-08-20T23:34:33.228Z,641.17
2022-08-20T23:37:19.254Z,639.07
2022-08-20T23:39:45.756Z,633.50
2022-08-20T23:42:12.192Z,625.37
2022-08-20T23:44:38.669Z,639.73
2022-08-20T23:47:05.139Z,636.13
2022-08-20T23:49:31.567Z,628.30
2022-08-20T23:51:58.017Z,640.40
2022-08-20T23:54:24.471Z,641.30
2022-08-20T23:56:50.927Z,625.57
2022-08-20T23:59:17.373Z,636.37
